createdAt,value
2018-07-15T00:02:33.879Z,3.37
2018-07-15T00:05:08.084Z,3.70
2018-07-15T00:07:41.854Z,3.60
2018-07-15T00:10:15.179Z,3.57
2018-07-15T00:12:47.701Z,4.57
2018-07-15T00:15:21.514Z,5.67
2018-07-15T00:17:55.563Z,4.07
2018-07-15T00:20:28.106Z,5.00
2018-07-15T00:23:01.090Z,4.63
2018-07-15T00:25:34.074Z,4.43
2018-07-15T00:28:07.632Z,4.97
2018-07-15T00:30:44.614Z,4.65
2018-07-15T00:33:18.145Z,4.80
2018-07-15T00:35:51.232Z,4.70
2018-07-15T00:38:25.841Z,6.12
2018-07-15T00:40:58.361Z,4.63
2018-07-15T00:43:30.876Z,4.97
2018-07-15T00:46:08.339Z,4.90
2018-07-15T00:48:40.874Z,7.00
2018-07-15T00:51:13.355Z,5.53
2018-07-15T00:53:47.339Z,4.97
2018-07-15T00:56:20.193Z,5.03
2018-07-15T00:58:53.564Z,9.37
2018-07-15T01:01:28.155Z,8.45
2018-07-15T01:04:00.721Z,6.60
2018-07-15T01:06:34.190Z,6.50
2018-07-15T01:09:10.717Z,7.60
2018-07-15T01:11:43.209Z,5.70
2018-07-15T01:14:16.838Z,6.93
2018-07-15T01:16:49.942Z,7.77
2018-07-15T01:19:22.409Z,7.10
2018-07-15T01:21:56.283Z,8.10
2018-07-15T01:24:29.141Z,10.33
2018-07-15T01:27:01.680Z,6.90
2018-07-15T01:29:34.165Z,9.10
2018-07-15T01:32:08.629Z,9.07
2018-07-15T01:34:40.933Z,8.50
2018-07-15T01:37:14.383Z,6.73
2018-07-15T01:39:47.221Z,7.73
2018-07-15T01:42:20.829Z,6.33
2018-07-15T01:44:53.500Z,6.73
2018-07-15T01:47:27.377Z,12.10
2018-07-15T01:49:59.840Z,6.00
2018-07-15T01:52:33.036Z,5.73
2018-07-15T01:55:06.038Z,6.43
2018-07-15T01:57:38.577Z,8.47
2018-07-15T02:00:17.990Z,8.60
2018-07-15T02:02:53.397Z,10.60
2018-07-15T02:05:25.972Z,7.93
2018-07-15T02:08:00.805Z,8.93
2018-07-15T02:10:33.598Z,6.77
2018-07-15T02:13:06.409Z,6.97
2018-07-15T02:15:39.109Z,7.53
2018-07-15T02:18:11.672Z,6.93
2018-07-15T02:20:44.281Z,8.70
2018-07-15T02:23:17.313Z,8.63
2018-07-15T02:25:50.081Z,7.67
2018-07-15T02:28:24.681Z,7.82
2018-07-15T02:31:02.582Z,6.87
2018-07-15T02:33:36.984Z,6.90
2018-07-15T02:36:09.585Z,9.23
2018-07-15T02:38:43.158Z,7.65
2018-07-15T02:41:16.649Z,7.07
2018-07-15T02:43:50.136Z,7.33
2018-07-15T02:46:24.696Z,6.03
2018-07-15T02:48:58.161Z,8.27
2018-07-15T02:51:30.976Z,7.60
2018-07-15T02:54:04.812Z,8.47
2018-07-15T02:56:37.367Z,7.90
2018-07-15T02:59:11.370Z,7.10
2018-07-15T03:01:44.151Z,7.53
2018-07-15T03:04:16.750Z,8.60
2018-07-15T03:06:51.490Z,7.60
2018-07-15T03:09:25.372Z,8.07
2018-07-15T03:11:57.886Z,8.50
2018-07-15T03:14:30.261Z,9.37
2018-07-15T03:17:03.117Z,9.50
2018-07-15T03:19:35.930Z,8.90
2018-07-15T03:22:08.970Z,8.77
2018-07-15T03:24:41.785Z,8.83
2018-07-15T03:27:14.249Z,8.93
2018-07-15T03:29:46.769Z,8.63
2018-07-15T03:32:20.584Z,8.80
2018-07-15T03:34:53.339Z,8.67
2018-07-15T03:37:25.733Z,12.70
2018-07-15T03:39:59.570Z,8.50
2018-07-15T03:42:32.117Z,9.20
2018-07-15T03:45:07.582Z,8.30
2018-07-15T03:47:40.654Z,10.43
2018-07-15T03:50:18.042Z,11.17
2018-07-15T03:52:50.849Z,10.23
2018-07-15T03:57:57.514Z,10.20
2018-07-15T04:00:31.473Z,9.80
2018-07-15T04:03:04.174Z,8.48
2018-07-15T04:05:37.641Z,11.57
2018-07-15T04:08:10.225Z,8.70
2018-07-15T04:10:43.857Z,9.67
2018-07-15T04:13:16.377Z,8.93
2018-07-15T04:15:49.214Z,10.32
2018-07-15T04:18:22.612Z,10.10
2018-07-15T04:20:55.392Z,11.17
2018-07-15T04:23:29.386Z,10.37
2018-07-15T04:26:02.677Z,9.70
2018-07-15T04:28:39.496Z,8.43
2018-07-15T04:31:13.064Z,9.57
2018-07-15T04:33:45.565Z,10.53
2018-07-15T04:36:17.982Z,9.70
2018-07-15T04:38:51.573Z,8.97
2018-07-15T04:41:25.708Z,10.35
2018-07-15T04:43:58.218Z,8.87
2018-07-15T04:46:31.090Z,8.83
2018-07-15T04:49:03.630Z,9.47
2018-07-15T04:51:36.796Z,8.83
2018-07-15T04:54:09.749Z,9.90
2018-07-15T04:56:42.559Z,9.00
2018-07-15T04:59:16.964Z,8.75
2018-07-15T05:01:51.643Z,8.83
2018-07-15T05:04:29.417Z,8.37
2018-07-15T05:07:02.273Z,10.87
2018-07-15T05:09:34.833Z,8.50
2018-07-15T05:12:09.505Z,7.80
2018-07-15T05:14:42.419Z,8.10
2018-07-15T05:17:14.990Z,7.97
2018-07-15T05:19:47.574Z,8.20
2018-07-15T05:22:21.506Z,8.17
2018-07-15T05:24:54.845Z,8.10
2018-07-15T05:27:27.584Z,8.37
2018-07-15T05:30:04.143Z,8.27
2018-07-15T05:32:36.832Z,8.37
2018-07-15T05:35:09.593Z,9.10
2018-07-15T05:37:45.241Z,8.47
2018-07-15T05:40:17.863Z,9.07
2018-07-15T05:42:51.494Z,9.73
2018-07-15T05:45:25.029Z,10.27
2018-07-15T05:47:58.102Z,8.17
2018-07-15T05:50:31.775Z,7.40
2018-07-15T05:53:05.697Z,8.27
2018-07-15T05:55:38.080Z,7.73
2018-07-15T05:58:11.383Z,8.20
2018-07-15T06:00:44.406Z,8.00
2018-07-15T06:03:19.195Z,7.70
2018-07-15T06:05:52.995Z,7.17
2018-07-15T06:08:27.901Z,6.93
2018-07-15T06:11:03.384Z,10.37
2018-07-15T06:13:38.056Z,9.10
2018-07-15T06:16:12.128Z,6.70
2018-07-15T06:18:44.745Z,8.77
2018-07-15T06:21:17.353Z,6.53
2018-07-15T06:23:50.390Z,7.40
2018-07-15T06:26:22.853Z,6.43
2018-07-15T06:28:56.112Z,6.23
2018-07-15T06:31:29.855Z,5.40
2018-07-15T06:34:03.720Z,6.40
2018-07-15T06:36:39.094Z,5.13
2018-07-15T06:39:14.136Z,6.30
2018-07-15T06:41:51.320Z,5.03
2018-07-15T06:44:25.171Z,5.35
2018-07-15T06:46:58.270Z,5.93
2018-07-15T06:49:32.884Z,4.80
2018-07-15T06:52:06.737Z,4.53
2018-07-15T06:54:40.274Z,4.60
2018-07-15T06:57:13.826Z,6.43
2018-07-15T06:59:47.877Z,4.50
2018-07-15T07:02:21.605Z,5.53
2018-07-15T07:04:55.357Z,5.70
2018-07-15T07:07:28.060Z,4.53
2018-07-15T07:10:01.931Z,5.87
2018-07-15T07:12:34.435Z,8.00
2018-07-15T07:15:07.794Z,4.33
2018-07-15T07:17:45.582Z,4.00
2018-07-15T07:20:18.801Z,7.07
2018-07-15T07:22:51.294Z,3.70
2018-07-15T07:25:25.152Z,4.63
2018-07-15T07:27:59.684Z,3.93
2018-07-15T07:30:34.109Z,8.05
2018-07-15T07:33:10.018Z,4.20
2018-07-15T07:35:42.953Z,6.40
2018-07-15T07:38:15.616Z,3.53
2018-07-15T07:40:50.212Z,3.60
2018-07-15T07:43:23.145Z,2.90
2018-07-15T07:45:56.550Z,3.30
2018-07-15T07:48:30.049Z,4.87
2018-07-15T07:51:03.595Z,4.00
2018-07-15T07:53:36.939Z,3.25
2018-07-15T07:56:10.769Z,4.87
2018-07-15T07:58:45.940Z,4.70
2018-07-15T08:01:20.621Z,3.63
2018-07-15T08:03:55.669Z,3.07
2018-07-15T08:06:30.607Z,5.03
2018-07-15T08:09:15.776Z,3.20
2018-07-15T08:11:50.588Z,4.40
2018-07-15T08:14:23.472Z,3.53
2018-07-15T08:16:56.965Z,3.83
2018-07-15T08:19:29.597Z,3.77
2018-07-15T08:22:03.164Z,4.40
2018-07-15T08:24:39.045Z,3.30
2018-07-15T08:27:12.248Z,4.33
2018-07-15T08:30:08.371Z,2.70
2018-07-15T08:32:41.617Z,2.80
2018-07-15T08:35:18.679Z,5.00
2018-07-15T08:37:56.733Z,3.93
2018-07-15T08:40:30.420Z,3.67
2018-07-15T08:43:03.864Z,1.97
2018-07-15T08:45:36.600Z,3.10
2018-07-15T08:48:16.760Z,2.10
2018-07-15T08:50:50.249Z,1.70
2018-07-15T08:53:24.004Z,3.77
2018-07-15T08:55:58.090Z,2.67
2018-07-15T08:58:32.326Z,2.13
2018-07-15T09:01:06.587Z,1.57
2018-07-15T09:03:47.308Z,0.97
2018-07-15T09:06:21.145Z,1.60
2018-07-15T09:08:59.044Z,1.40
2018-07-15T09:11:32.055Z,1.87
2018-07-15T09:14:05.294Z,2.73
2018-07-15T09:16:39.582Z,1.62
2018-07-15T09:19:13.278Z,1.67
2018-07-15T09:21:46.558Z,1.50
2018-07-15T09:24:22.407Z,1.60
2018-07-15T09:26:59.119Z,1.80
2018-07-15T09:29:36.973Z,1.60
2018-07-15T09:32:11.906Z,2.03
2018-07-15T09:34:46.367Z,2.22
2018-07-15T09:37:22.924Z,2.23
2018-07-15T09:40:03.009Z,1.50
2018-07-15T09:42:37.746Z,1.33
2018-07-15T09:45:14.289Z,2.20
2018-07-15T09:47:47.747Z,2.23
2018-07-15T09:50:23.785Z,2.00
2018-07-15T09:52:59.931Z,2.03
2018-07-15T09:55:34.055Z,2.10
2018-07-15T09:58:11.911Z,1.70
2018-07-15T10:00:53.540Z,6.23
2018-07-15T10:03:28.044Z,2.60
2018-07-15T10:06:03.768Z,2.80
2018-07-15T10:08:37.250Z,2.10
2018-07-15T10:11:10.617Z,2.37
2018-07-15T10:13:50.098Z,4.30
2018-07-15T10:16:25.380Z,2.40
2018-07-15T10:19:00.350Z,3.20
2018-07-15T10:21:37.773Z,2.83
2018-07-15T10:24:14.008Z,2.25
2018-07-15T10:26:48.689Z,2.80
2018-07-15T10:29:23.317Z,2.80
2018-07-15T10:31:55.848Z,3.40
2018-07-15T10:34:29.488Z,2.73
2018-07-15T10:37:02.340Z,2.00
2018-07-15T10:39:36.796Z,1.40
2018-07-15T10:42:11.304Z,2.00
2018-07-15T10:44:48.383Z,1.80
2018-07-15T10:47:24.523Z,2.73
2018-07-15T10:49:58.587Z,1.40
2018-07-15T10:52:33.623Z,1.90
2018-07-15T10:55:07.135Z,2.13
2018-07-15T10:57:40.461Z,2.10
2018-07-15T11:00:16.473Z,2.17
2018-07-15T11:02:52.492Z,2.90
2018-07-15T11:05:25.452Z,1.60
2018-07-15T11:07:58.336Z,3.10
2018-07-15T11:10:32.161Z,2.80
2018-07-15T11:13:06.491Z,1.00
2018-07-15T11:15:41.481Z,1.80
2018-07-15T11:18:23.528Z,3.63
2018-07-15T11:20:57.476Z,2.90
2018-07-15T11:23:33.764Z,1.70
2018-07-15T11:26:11.601Z,3.20
2018-07-15T11:28:48.383Z,5.07
2018-07-15T11:31:23.438Z,1.40
2018-07-15T11:34:02.606Z,1.60
2018-07-15T11:36:37.445Z,1.67
2018-07-15T11:39:11.399Z,3.30
2018-07-15T11:41:44.582Z,2.17
2018-07-15T11:44:20.212Z,1.50
2018-07-15T11:47:02.440Z,1.70
2018-07-15T11:49:35.996Z,3.42
2018-07-15T11:52:12.269Z,1.60
2018-07-15T11:54:47.293Z,2.87
2018-07-15T11:57:21.183Z,1.50
2018-07-15T11:59:57.929Z,1.50
2018-07-15T12:02:33.431Z,1.57
2018-07-15T12:05:07.745Z,1.50
2018-07-15T12:07:42.311Z,1.57
2018-07-15T12:10:17.267Z,1.93
2018-07-15T12:12:51.026Z,2.33
2018-07-15T12:15:25.741Z,1.80
2018-07-15T12:18:01.085Z,2.40
2018-07-15T12:20:40.218Z,3.03
2018-07-15T12:23:14.402Z,1.60
2018-07-15T12:25:47.942Z,2.30
2018-07-15T12:28:20.919Z,1.83
2018-07-15T12:30:54.231Z,1.30
2018-07-15T12:33:27.662Z,1.57
2018-07-15T12:36:04.796Z,1.73
2018-07-15T12:38:41.030Z,1.58
2018-07-15T12:41:14.577Z,3.07
2018-07-15T12:43:48.092Z,1.77
2018-07-15T12:46:23.265Z,2.22
2018-07-15T12:48:55.924Z,1.40
2018-07-15T12:51:32.616Z,2.60
2018-07-15T12:54:06.805Z,1.40
2018-07-15T12:56:41.751Z,1.03
2018-07-15T12:59:18.202Z,4.47
2018-07-15T13:01:52.223Z,1.50
2018-07-15T13:04:26.683Z,1.60
2018-07-15T13:07:03.318Z,1.50
2018-07-15T13:09:36.625Z,1.17
2018-07-15T13:12:15.950Z,1.83
2018-07-15T13:14:54.503Z,2.67
2018-07-15T13:17:29.789Z,1.53
2018-07-15T13:20:05.623Z,1.87
2018-07-15T13:22:43.893Z,2.03
2018-07-15T13:25:20.552Z,1.73
2018-07-15T13:27:55.587Z,1.30
2018-07-15T13:30:34.280Z,2.23
2018-07-15T13:33:09.444Z,2.40
2018-07-15T13:35:58.017Z,1.70
2018-07-15T13:38:34.503Z,1.73
2018-07-15T13:41:10.167Z,2.07
2018-07-15T13:43:52.133Z,2.50
2018-07-15T13:46:29.055Z,1.50
2018-07-15T13:49:02.473Z,1.20
2018-07-15T13:51:38.107Z,1.73
2018-07-15T13:54:10.968Z,1.30
2018-07-15T13:56:43.663Z,1.63
2018-07-15T13:59:17.625Z,1.97
2018-07-15T14:01:51.209Z,1.57
2018-07-15T14:04:31.614Z,1.53
2018-07-15T14:07:13.950Z,1.33
2018-07-15T14:09:51.997Z,2.40
2018-07-15T14:12:27.926Z,2.50
2018-07-15T14:15:05.336Z,1.37
2018-07-15T14:17:39.335Z,1.10
2018-07-15T14:20:24.366Z,2.20
2018-07-15T14:23:00.457Z,1.83
2018-07-15T14:25:37.366Z,1.73
2018-07-15T14:28:23.641Z,1.30
2018-07-15T14:30:57.993Z,1.60
2018-07-15T14:33:51.397Z,2.23
2018-07-15T14:36:28.704Z,1.67
2018-07-15T14:39:04.374Z,2.07
2018-07-15T14:41:46.127Z,1.40
2018-07-15T14:44:20.266Z,1.23
2018-07-15T14:46:55.909Z,1.67
2018-07-15T14:49:29.377Z,1.13
2018-07-15T14:52:04.471Z,1.17
2018-07-15T14:54:39.425Z,1.40
2018-07-15T14:57:13.429Z,1.80
2018-07-15T14:59:47.530Z,1.37
2018-07-15T15:02:20.064Z,1.45
2018-07-15T15:04:54.391Z,0.93
2018-07-15T15:07:28.919Z,1.47
2018-07-15T15:10:02.592Z,2.13
2018-07-15T15:12:42.669Z,1.20
2018-07-15T15:15:17.708Z,1.50
2018-07-15T15:17:54.024Z,1.20
2018-07-15T15:20:30.213Z,2.93
2018-07-15T15:23:04.605Z,1.50
2018-07-15T15:25:39.966Z,1.73
2018-07-15T15:28:15.720Z,1.40
2018-07-15T15:30:56.078Z,2.00
2018-07-15T15:33:29.425Z,1.97
2018-07-15T15:36:03.052Z,1.00
2018-07-15T15:38:38.237Z,2.23
2018-07-15T15:41:15.733Z,2.50
2018-07-15T15:43:50.625Z,2.10
2018-07-15T15:46:25.447Z,1.97
2018-07-15T15:48:58.173Z,1.83
2018-07-15T15:51:33.846Z,1.30
2018-07-15T15:54:06.856Z,1.50
2018-07-15T15:56:42.539Z,1.40
2018-07-15T15:59:17.492Z,1.50
2018-07-15T16:01:51.885Z,2.63
2018-07-15T16:04:29.620Z,2.03
2018-07-15T16:07:11.258Z,1.20
2018-07-15T16:09:48.154Z,1.73
2018-07-15T16:12:25.138Z,0.80
2018-07-15T16:15:04.003Z,0.90
2018-07-15T16:17:50.488Z,1.60
2018-07-15T16:20:32.969Z,1.27
2018-07-15T16:23:09.346Z,3.83
2018-07-15T16:25:44.166Z,1.47
2018-07-15T16:28:19.955Z,1.27
2018-07-15T16:30:54.577Z,1.30
2018-07-15T16:33:43.642Z,0.80
2018-07-15T16:36:17.734Z,1.13
2018-07-15T16:38:56.695Z,3.13
2018-07-15T16:41:29.745Z,0.97
2018-07-15T16:44:04.882Z,1.40
2018-07-15T16:46:40.713Z,1.40
2018-07-15T16:49:16.906Z,0.70
2018-07-15T16:51:51.313Z,1.17
2018-07-15T16:54:26.553Z,1.30
2018-07-15T16:57:04.777Z,2.53
2018-07-15T16:59:38.715Z,1.60
2018-07-15T17:02:13.360Z,2.07
2018-07-15T17:04:51.022Z,0.90
2018-07-15T17:07:25.278Z,0.73
2018-07-15T17:09:59.305Z,1.90
2018-07-15T17:12:33.909Z,0.82
2018-07-15T17:15:07.934Z,1.03
2018-07-15T17:17:42.292Z,0.80
2018-07-15T17:20:17.670Z,1.48
2018-07-15T17:22:53.670Z,2.17
2018-07-15T17:25:26.955Z,0.93
2018-07-15T17:28:01.369Z,0.70
2018-07-15T17:30:36.849Z,0.67
2018-07-15T17:33:10.005Z,0.50
2018-07-15T17:35:44.533Z,1.73
2018-07-15T17:38:20.696Z,0.53
2018-07-15T17:41:04.842Z,1.03
2018-07-15T17:43:38.449Z,3.27
2018-07-15T17:46:12.563Z,2.40
2018-07-15T17:48:46.871Z,1.80
2018-07-15T17:51:21.141Z,0.63
2018-07-15T17:53:56.660Z,1.90
2018-07-15T17:56:34.175Z,0.70
2018-07-15T17:59:10.395Z,2.27
2018-07-15T18:01:43.184Z,0.63
2018-07-15T18:04:17.569Z,1.40
2018-07-15T18:06:51.252Z,1.53
2018-07-15T18:09:25.300Z,2.00
2018-07-15T18:11:58.883Z,2.67
2018-07-15T18:14:37.700Z,0.80
2018-07-15T18:17:11.564Z,1.30
2018-07-15T18:19:53.482Z,1.13
2018-07-15T18:22:32.008Z,1.00
2018-07-15T18:25:15.333Z,0.67
2018-07-15T18:27:50.309Z,0.70
2018-07-15T18:30:30.808Z,1.20
2018-07-15T18:33:05.117Z,0.77
2018-07-15T18:35:40.000Z,0.95
2018-07-15T18:38:21.947Z,2.37
2018-07-15T18:40:55.042Z,1.67
2018-07-15T18:43:30.007Z,0.60
2018-07-15T18:46:05.999Z,1.80
2018-07-15T18:48:41.779Z,1.03
2018-07-15T18:51:14.356Z,1.50
2018-07-15T18:53:48.342Z,0.60
2018-07-15T18:56:21.913Z,0.53
2018-07-15T18:58:56.593Z,1.17
2018-07-15T19:01:34.556Z,1.63
2018-07-15T19:04:08.252Z,0.60
2018-07-15T19:06:40.846Z,2.10
2018-07-15T19:09:17.387Z,1.60
2018-07-15T19:11:51.200Z,0.87
2018-07-15T19:14:24.676Z,1.20
2018-07-15T19:17:12.054Z,0.67
2018-07-15T19:19:51.718Z,1.90
2018-07-15T19:22:45.091Z,1.17
2018-07-15T19:25:20.358Z,1.03
2018-07-15T19:27:53.512Z,1.43
2018-07-15T19:30:32.017Z,1.10
2018-07-15T19:33:08.373Z,1.70
2018-07-15T19:35:44.478Z,0.90
2018-07-15T19:38:26.489Z,1.10
2018-07-15T19:41:03.629Z,0.53
2018-07-15T19:43:41.334Z,1.47
2018-07-15T19:46:19.953Z,1.62
2018-07-15T19:48:55.320Z,1.10
2018-07-15T19:51:31.493Z,1.77
2018-07-15T19:54:06.129Z,0.70
2018-07-15T19:56:40.447Z,2.70
2018-07-15T19:59:13.176Z,0.80
2018-07-15T20:01:46.796Z,1.73
2018-07-15T20:04:22.049Z,2.13
2018-07-15T20:06:55.765Z,0.90
2018-07-15T20:09:30.519Z,5.40
2018-07-15T20:12:05.732Z,1.27
2018-07-15T20:14:47.558Z,2.27
2018-07-15T20:17:21.688Z,1.10
2018-07-15T20:19:56.073Z,2.17
2018-07-15T20:22:42.604Z,4.40
2018-07-15T20:25:16.450Z,4.53
2018-07-15T20:27:51.751Z,1.83
2018-07-15T20:30:37.541Z,2.87
2018-07-15T20:33:16.680Z,1.13
2018-07-15T20:35:52.694Z,1.87
2018-07-15T20:38:30.249Z,2.47
2018-07-15T20:41:03.473Z,1.93
2018-07-15T20:43:41.580Z,2.17
2018-07-15T20:46:15.750Z,3.40
2018-07-15T20:48:52.127Z,3.67
2018-07-15T20:51:25.907Z,5.30
2018-07-15T20:54:01.807Z,1.33
2018-07-15T20:56:38.965Z,3.83
2018-07-15T20:59:20.373Z,2.63
2018-07-15T21:01:55.340Z,1.73
2018-07-15T21:04:38.592Z,2.30
2018-07-15T21:07:15.537Z,1.27
2018-07-15T21:09:57.726Z,2.08
2018-07-15T21:12:34.981Z,2.17
2018-07-15T21:15:14.545Z,1.80
2018-07-15T21:17:49.405Z,3.07
2018-07-15T21:20:30.109Z,4.87
2018-07-15T21:23:18.545Z,2.47
2018-07-15T21:25:53.961Z,1.13
2018-07-15T21:28:30.673Z,2.10
2018-07-15T21:31:05.309Z,2.80
2018-07-15T21:33:37.871Z,2.65
2018-07-15T21:36:13.372Z,3.10
2018-07-15T21:38:48.434Z,1.20
2018-07-15T21:41:23.183Z,1.07
2018-07-15T21:43:57.397Z,2.33
2018-07-15T21:46:30.768Z,3.70
2018-07-15T21:49:09.244Z,2.00
2018-07-15T21:51:43.481Z,1.33
2018-07-15T21:54:19.287Z,1.87
2018-07-15T21:56:52.945Z,1.23
2018-07-15T21:59:28.249Z,2.30
2018-07-15T22:02:02.766Z,1.80
2018-07-15T22:04:37.978Z,2.20
2018-07-15T22:07:33.053Z,2.70
2018-07-15T22:10:37.328Z,4.10
2018-07-15T22:13:16.134Z,5.75
2018-07-15T22:15:49.673Z,4.60
2018-07-15T22:18:26.809Z,2.47
2018-07-15T22:21:01.627Z,2.20
2018-07-15T22:23:36.337Z,4.07
2018-07-15T22:26:11.263Z,1.40
2018-07-15T22:28:43.992Z,4.23
2018-07-15T22:31:17.696Z,4.12
2018-07-15T22:33:52.072Z,2.90
2018-07-15T22:36:24.671Z,3.08
2018-07-15T22:38:58.790Z,4.50
2018-07-15T22:41:31.594Z,2.93
2018-07-15T22:44:05.230Z,4.20
2018-07-15T22:46:38.800Z,2.67
2018-07-15T22:49:12.861Z,3.13
2018-07-15T22:51:46.450Z,1.30
2018-07-15T22:54:20.584Z,1.93
2018-07-15T22:56:53.712Z,3.70
2018-07-15T22:59:26.664Z,3.20
2018-07-15T23:02:00.829Z,3.90
2018-07-15T23:05:35.244Z,4.63
2018-07-15T23:08:08.265Z,1.80
2018-07-15T23:10:40.765Z,4.20
2018-07-15T23:13:15.019Z,4.63
2018-07-15T23:15:48.011Z,1.67
2018-07-15T23:18:20.601Z,2.58
2018-07-15T23:20:54.238Z,2.30
2018-07-15T23:23:26.784Z,4.07
2018-07-15T23:26:03.027Z,1.77
2018-07-15T23:28:36.846Z,1.37
2018-07-15T23:31:09.461Z,1.40
2018-07-15T23:33:42.026Z,1.37
2018-07-15T23:36:16.772Z,1.63
2018-07-15T23:38:49.321Z,2.60
2018-07-15T23:41:21.740Z,2.80
2018-07-15T23:43:54.629Z,3.90
2018-07-15T23:46:27.758Z,1.27
2018-07-15T23:49:01.625Z,2.40
2018-07-15T23:51:36.452Z,1.50
2018-07-15T23:54:09.478Z,1.50
2018-07-15T23:56:44.800Z,2.07
2018-07-15T23:59:19.214Z,1.90
